Weather at Phuket International Airport

Public forecast

Using degrees Celsius for public forecast. Weather courtesy of forecast.io.

Current aviation weather report (METAR) for Phuket International Airport

Report is more than 6 hours old.

2022/11/14 15:30 (retrieved 2 years ago)

VTSP 141530Z 04002KT 9999 FEW020 25/24 Q1010 NOSIG

Aviation forecast (TAF) for Phuket International Airport

Forecast is more than 12 hours old.

2023/02/22 18:19 (retrieved 1 year ago)

TAF VTSP 221700Z 2218/2324 08006KT 9999 FEW020 BECMG 2307/2309 30007KT BECMG 2312/2314 08005KT